Aj — WDI8684 — position and weather

sailwx.info

Track history (hours):
 
Tides and Currents Weather Stations Pressure Air Temp Water Temp Dewpoint Dewpoint Depression Visibility Wind Speed Wind Dir Waves Ship Positions

Aj

Owner: Harley Marine Services, Inc, Seattle, WA. More information available from US FCC via Universal Licensing System and Coast Guard Vessel Documentation Center.

Last reported at 2017-Dec-11 17:00 UTC. Time now 2017-Dec-12 12:32 UTC.
Position N 48°39' W 122°43'.

Length 30 m; draft 3.8 m.

Type: Tow > 200 m length. MMSI: 367741120.

Date/timePositionNaut miles runAvg speedWind from/ knotsBaromVisibWave heightAir tempDewpointWater temp
2017-Dec-11 17:00N 48°39' W 122°43'3 6.6
2017-Dec-11 16:30N 48°36' W 122°45'3 6.9
2017-Dec-11 16:00N 48°33' W 122°45'3 6.1
2017-Dec-11 15:30N 48°30' W 122°44'3 5.5
2017-Dec-11 15:00N 48°27' W 122°45'3 6.3
2017-Dec-11 14:30N 48°24' W 122°48'3 6.2
2017-Dec-11 14:00N 48°22' W 122°51'3 6.3
2017-Dec-11 13:30N 48°21' W 122°55'3 6.5
2017-Dec-11 12:59N 48°19' W 122°59'3 6.6
2017-Dec-11 12:30N 48°17' W 123°03'3 6.6
2017-Dec-11 12:00N 48°15' W 123°08'3 6.5
2017-Dec-11 11:30N 48°14' W 123°12'3 6.5
2017-Dec-11 11:00N 48°12' W 123°16'3 5.5
2017-Dec-11 10:30N 48°10' W 123°19'3 5.5
2017-Dec-11 10:00N 48°09' W 123°23'2 4.6
2017-Dec-11 09:31N 48°08' W 123°26'1 0.1
2017-Dec-11 05:55N 48°08' W 123°26'0 0.0
2017-Dec-11 05:30N 48°08' W 123°26'0 0.0
2017-Dec-11 04:18N 48°08' W 123°26'0 0.0
2017-Dec-11 02:43N 48°08' W 123°26'0 0.0
2017-Dec-11 02:30N 48°08' W 123°26'0 0.0
2017-Dec-11 01:12N 48°08' W 123°26'0 0.0
2017-Dec-10 22:09N 48°08' W 123°26'0 0.0
2017-Dec-10 21:54N 48°08' W 123°26'0 0.0
2017-Dec-10 21:27N 48°08' W 123°26'0 0.0
2017-Dec-10 19:33N 48°08' W 123°26'0 0.0
2017-Dec-10 19:27N 48°08' W 123°26'0 0.0
2017-Dec-10 18:51N 48°08' W 123°26'0 0.0
2017-Dec-10 18:28N 48°08' W 123°26'0 0.0
2017-Dec-10 17:57N 48°08' W 123°26'0 0.0
2017-Dec-10 17:27N 48°08' W 123°26'0 0.0
2017-Dec-10 16:57N 48°08' W 123°26'0 0.0
2017-Dec-10 16:09N 48°08' W 123°26'0 0.0
2017-Dec-10 16:00N 48°08' W 123°26'0 0.0
2017-Dec-10 15:28N 48°08' W 123°26'0 0.0
2017-Dec-10 14:57N 48°08' W 123°26'0 0.0
2017-Dec-10 14:27N 48°08' W 123°26'0 0.0
2017-Dec-10 13:58N 48°08' W 123°26'0 0.0
2017-Dec-10 12:57N 48°08' W 123°26'0 0.0
2017-Dec-10 12:27N 48°08' W 123°26'0 0.0
2017-Dec-10 11:34N 48°08' W 123°26'0 0.0
2017-Dec-10 10:03N 48°08' W 123°26'0 0.0
2017-Dec-10 09:51N 48°08' W 123°26'0 0.0
2017-Dec-10 09:27N 48°08' W 123°26'0 0.0
2017-Dec-10 08:57N 48°08' W 123°26'0 0.0
2017-Dec-10 08:27N 48°08' W 123°26'0 0.0
2017-Dec-10 06:45N 48°08' W 123°26'0 0.0
2017-Dec-10 05:27N 48°08' W 123°26'0 0.0
2017-Dec-10 04:57N 48°08' W 123°26'0 0.0
2017-Dec-10 02:27N 48°08' W 123°26'0 0.0
2017-Dec-10 01:57N 48°08' W 123°26'0 0.0
2017-Dec-10 01:24N 48°08' W 123°26'0 0.0
2017-Dec-10 00:57N 48°08' W 123°26'0 0.0
2017-Dec-10 00:27N 48°08' W 123°26'0 0.0
2017-Dec-09 23:51N 48°08' W 123°26'0 0.0
2017-Dec-09 23:30N 48°08' W 123°26'0 0.0
2017-Dec-09 22:42N 48°08' W 123°26'0 0.0
2017-Dec-09 22:21N 48°08' W 123°26'0 0.0
2017-Dec-09 21:27N 48°08' W 123°26'0 0.0
2017-Dec-09 20:45N 48°08' W 123°26'0 0.0
2017-Dec-09 20:21N 48°08' W 123°26'0 0.0
2017-Dec-09 19:57N 48°08' W 123°26'0 0.0
2017-Dec-09 19:27N 48°08' W 123°26'0 0.0
2017-Dec-09 18:51N 48°08' W 123°26'0 0.0
2017-Dec-09 18:03N 48°08' W 123°26'0 0.0
2017-Dec-09 17:57N 48°08' W 123°26'0 0.0
2017-Dec-09 17:15N 48°08' W 123°26'0 0.0
2017-Dec-09 16:57N 48°08' W 123°26'0 0.0
2017-Dec-09 16:30N 48°08' W 123°26'0 0.0
2017-Dec-09 15:57N 48°08' W 123°26'0 0.0
2017-Dec-09 15:21N 48°08' W 123°26'0 0.0
2017-Dec-09 14:45N 48°08' W 123°26'0 0.0
2017-Dec-09 14:15N 48°08' W 123°26'0 0.0
2017-Dec-09 13:57N 48°08' W 123°26'0 0.0
2017-Dec-09 13:27N 48°08' W 123°26'0 0.0
2017-Dec-09 12:39N 48°08' W 123°26'0 0.0
2017-Dec-09 12:15N 48°08' W 123°26'0 0.0
2017-Dec-09 11:57N 48°08' W 123°26'0 0.0
2017-Dec-09 11:27N 48°08' W 123°26'0 0.0
2017-Dec-09 10:57N 48°08' W 123°26'0 0.0
2017-Dec-09 10:30N 48°08' W 123°26'0 0.0
2017-Dec-09 09:57N 48°08' W 123°26'0 0.0
2017-Dec-09 09:27N 48°08' W 123°26'0 0.0
2017-Dec-09 08:57N 48°08' W 123°26'0 0.0
2017-Dec-09 08:27N 48°08' W 123°26'0 0.0
2017-Dec-09 07:57N 48°08' W 123°26'0 0.0
2017-Dec-09 07:21N 48°08' W 123°26'0 0.0
2017-Dec-09 07:00N 48°08' W 123°26'0 0.0
2017-Dec-09 06:30N 48°08' W 123°26'0 0.0
2017-Dec-09 05:54N 48°08' W 123°26'0 0.0
2017-Dec-09 05:18N 48°08' W 123°26'0 0.0
2017-Dec-09 04:57N 48°08' W 123°26'0 0.0
2017-Dec-09 04:21N 48°08' W 123°26'0 0.0
2017-Dec-09 04:00N 48°08' W 123°26'0 0.0
2017-Dec-09 03:21N 48°08' W 123°26'0 0.0
2017-Dec-09 03:00N 48°08' W 123°26'0 0.0
2017-Dec-09 01:03N 48°08' W 123°26'0 0.0
2017-Dec-09 00:57N 48°08' W 123°26'0 0.0
2017-Dec-08 21:15N 48°08' W 123°26'0 0.0
2017-Dec-08 20:57N 48°08' W 123°26'0 0.0
2017-Dec-08 20:27N 48°08' W 123°26'0 0.0
2017-Dec-08 19:39N 48°08' W 123°26'0 0.0
2017-Dec-08 19:30N 48°08' W 123°26'0 0.0
2017-Dec-08 18:57N 48°08' W 123°26'0 0.0
2017-Dec-08 18:30N 48°08' W 123°26'0 0.0
2017-Dec-08 17:57N 48°08' W 123°26'0 0.0
2017-Dec-08 16:15N 48°08' W 123°26'0 0.0
2017-Dec-08 15:51N 48°08' W 123°26'0 0.0
2017-Dec-08 15:24N 48°08' W 123°26'0 0.0
2017-Dec-08 15:00N 48°08' W 123°26'0 0.0
2017-Dec-08 14:18N 48°08' W 123°26'0 0.0
2017-Dec-08 13:54N 48°08' W 123°26'0 0.0
2017-Dec-08 13:24N 48°08' W 123°26'0 0.0
2017-Dec-08 12:54N 48°08' W 123°26'0 0.0
2017-Dec-08 12:27N 48°08' W 123°26'0 0.0
2017-Dec-08 11:42N 48°08' W 123°26'0 0.0
2017-Dec-08 11:18N 48°08' W 123°26'0 0.0
2017-Dec-08 11:00N 48°08' W 123°26'0 0.0
2017-Dec-08 04:48N 48°08' W 123°26'0 0.0
2017-Dec-08 03:54N 48°08' W 123°26'0 0.0
2017-Dec-08 03:30N 48°08' W 123°26'0 0.0
2017-Dec-08 02:33N 48°08' W 123°26'0 0.0
2017-Dec-08 02:27N 48°08' W 123°26'0 0.0
2017-Dec-08 01:36N 48°08' W 123°26'0 0.0
2017-Dec-08 01:30N 48°08' W 123°26'0 0.0
2017-Dec-08 00:42N 48°08' W 123°26'0 0.0
2017-Dec-08 00:24N 48°08' W 123°26'0 0.0
2017-Dec-08 00:00N 48°08' W 123°26'0 0.0
2017-Dec-07 23:03N 48°08' W 123°26'0 0.0
2017-Dec-07 23:00N 48°08' W 123°26'0 0.0
2017-Dec-07 22:30N 48°08' W 123°26'0 0.0
2017-Dec-07 21:30N 48°08' W 123°26'0 0.0
2017-Dec-07 21:00N 48°08' W 123°26'0 0.0
2017-Dec-07 20:30N 48°08' W 123°26'0 0.0
2017-Dec-07 18:45N 48°08' W 123°26'0 0.4
2017-Dec-07 18:30N 48°08' W 123°26'0 0.7
2017-Dec-07 18:01N 48°08' W 123°26'0 0.3
2017-Dec-07 17:31N 48°08' W 123°27'0 0.1
2017-Dec-07 17:00N 48°08' W 123°27'0 0.1
2017-Dec-07 16:30N 48°08' W 123°27'0 0.4
2017-Dec-07 15:58N 48°08' W 123°26'1 1.4
2017-Dec-07 15:22N 48°08' W 123°25'0 0.2
2017-Dec-07 14:58N 48°08' W 123°25'0 0.0
2017-Dec-07 14:25N 48°08' W 123°25'0 0.8
2017-Dec-07 13:56N 48°08' W 123°25'0 0.6
2017-Dec-07 13:27N 48°08' W 123°24'0 0.0
2017-Dec-07 12:54N 48°08' W 123°24'0 0.0
2017-Dec-07 12:27N 48°08' W 123°24'0 0.0
2017-Dec-07 11:57N 48°08' W 123°24'0 0.0
2017-Dec-07 11:27N 48°08' W 123°24'0 0.1
2017-Dec-07 10:57N 48°08' W 123°24'0 0.2
2017-Dec-07 10:30N 48°08' W 123°24'0 0.3
2017-Dec-07 10:00N 48°08' W 123°24'2 4.0
2017-Dec-07 09:30N 48°09' W 123°22'1 2.4
2017-Dec-07 09:00N 48°09' W 123°20'3 6.7
2017-Dec-07 08:30N 48°11' W 123°16'4 7.2
2017-Dec-07 08:00N 48°13' W 123°11'3 5.9
2017-Dec-07 07:29N 48°14' W 123°07'1 1.7
2017-Dec-07 07:00N 48°15' W 123°07'0 0.7
2017-Dec-07 06:30N 48°15' W 123°07'0 0.8
2017-Dec-07 06:00N 48°14' W 123°07'1 1.7
2017-Dec-07 05:30N 48°14' W 123°07'4 5.5
2017-Dec-07 04:49N 48°13' W 123°01'2 5.6
2017-Dec-07 04:29N 48°12' W 122°59'3 5.6
2017-Dec-07 03:55N 48°12' W 122°54'3 6.9
2017-Dec-07 03:26N 48°12' W 122°49'12 6.5
2017-Dec-07 01:35N 48°03' W 122°38'1 6.1
2017-Dec-07 01:25N 48°02' W 122°37'3 6.0
2017-Dec-07 00:59N 47°59' W 122°35'3 5.6
2017-Dec-07 00:29N 47°57' W 122°33'3 6.3
2017-Dec-07 00:00N 47°56' W 122°29'3 5.9
2017-Dec-06 23:30N 47°53' W 122°28'3 6.7
2017-Dec-06 23:00N 47°49' W 122°27'3 6.3
2017-Dec-06 22:30N 47°46' W 122°26'3 5.8
2017-Dec-06 22:00N 47°43' W 122°26'3 5.5
2017-Dec-06 21:30N 47°41' W 122°27'3 5.7
2017-Dec-06 21:00N 47°38' W 122°26'  
2017-Dec-04 10:19N 48°19' W 122°60'2 6.1
2017-Dec-04 10:00N 48°18' W 123°02'4 8.4
2017-Dec-04 09:30N 48°16' W 123°07'4 8.0
2017-Dec-04 09:00N 48°13' W 123°12'4 7.5
2017-Dec-04 08:30N 48°11' W 123°17'4 7.7
2017-Dec-04 08:00N 48°09' W 123°21'2 5.0
2017-Dec-04 07:30N 48°08' W 123°25'1 1.6
2017-Dec-04 07:00N 48°08' W 123°26'0 0.0
2017-Dec-04 06:30N 48°08' W 123°26'0 0.1
2017-Dec-04 06:00N 48°08' W 123°26'0 0.0
2017-Dec-04 05:30N 48°08' W 123°26'0 0.0
2017-Dec-04 05:00N 48°08' W 123°26'0 0.0
2017-Dec-04 04:30N 48°08' W 123°26'0 0.0
2017-Dec-04 04:00N 48°08' W 123°26'0 0.0
2017-Dec-04 03:30N 48°08' W 123°26'0 0.0
2017-Dec-04 03:00N 48°08' W 123°26'0 0.0
2017-Dec-04 02:30N 48°08' W 123°26'0 0.0
2017-Dec-04 02:00N 48°08' W 123°26'0 0.1
2017-Dec-04 01:30N 48°08' W 123°26'0 0.1
2017-Dec-04 01:00N 48°08' W 123°26'0 0.1
2017-Dec-04 00:23N 48°08' W 123°26'0 0.0
2017-Dec-04 00:00N 48°08' W 123°26'0 0.0
2017-Dec-03 23:30N 48°08' W 123°26'0 0.1
2017-Dec-03 23:00N 48°08' W 123°26'0 0.0
2017-Dec-03 22:30N 48°08' W 123°26'0 0.1
2017-Dec-03 22:00N 48°08' W 123°26'0 0.1
2017-Dec-03 21:30N 48°08' W 123°26'0 0.0
2017-Dec-03 20:53N 48°08' W 123°26'0 0.0
2017-Dec-03 20:30N 48°08' W 123°26'0 0.1
2017-Dec-03 20:00N 48°08' W 123°26'0 0.1
2017-Dec-03 19:30N 48°08' W 123°26'0 0.0
2017-Dec-03 19:00N 48°08' W 123°26'0 0.1
2017-Dec-03 18:29N 48°08' W 123°26'0 0.0
2017-Dec-03 18:00N 48°08' W 123°26'0 0.1
2017-Dec-03 17:29N 48°08' W 123°26'0 0.1
2017-Dec-03 16:53N 48°08' W 123°26'0 0.1
2017-Dec-03 16:28N 48°08' W 123°26'1 1.4
2017-Dec-03 16:00N 48°08' W 123°25'1 3.0
2017-Dec-03 15:30N 48°08' W 123°23'4 7.0
2017-Dec-03 14:58N 48°10' W 123°18'4 7.5
2017-Dec-03 14:26N 48°11' W 123°12'3 6.8
2017-Dec-03 13:59N 48°12' W 123°08'21 3.2
2017-Dec-03 07:30N 48°06' W 122°38'4 5.8
2017-Dec-03 06:50N 48°02' W 122°37'3 5.8
2017-Dec-03 06:21N 47°59' W 122°35'2 5.8
2017-Dec-03 06:00N 47°58' W 122°33'3 6.8
2017-Dec-03 05:30N 47°56' W 122°29'3 6.9
2017-Dec-03 05:00N 47°53' W 122°28'3 6.7
2017-Dec-03 04:30N 47°49' W 122°27'3 6.7
2017-Dec-03 04:00N 47°46' W 122°25'4 7.0
2017-Dec-03 03:30N 47°43' W 122°26'4 7.1
2017-Dec-03 03:00N 47°39' W 122°27'3 6.4
2017-Dec-03 02:31N 47°37' W 122°24'2 4.0
2017-Dec-03 02:01N 47°36' W 122°21'0 0.5
2017-Dec-03 01:30N 47°35' W 122°21'0 0.0
2017-Dec-03 01:00N 47°35' W 122°21'0 0.0
2017-Dec-03 00:30N 47°35' W 122°21'0 0.0
2017-Dec-03 00:00N 47°35' W 122°21'0 0.0
2017-Dec-02 23:30N 47°35' W 122°21'0 0.0
2017-Dec-02 23:00N 47°35' W 122°21'1 1.9
2017-Dec-02 22:29N 47°34' W 122°21'0 0.0
2017-Dec-02 21:59N 47°34' W 122°21'0 0.0
2017-Dec-02 21:29N 47°34' W 122°21'0 0.0
2017-Dec-02 21:00N 47°34' W 122°21'0 0.0
2017-Dec-02 20:30N 47°34' W 122°21'1 2.0
2017-Dec-02 19:59N 47°35' W 122°21'0 0.0
2017-Dec-02 19:30N 47°35' W 122°21'0 0.0
2017-Dec-02 18:56N 47°35' W 122°21'0 0.0
2017-Dec-02 18:29N 47°35' W 122°21'0 0.0
2017-Dec-02 17:59N 47°35' W 122°21'0 0.0
2017-Dec-02 17:29N 47°35' W 122°21'0 0.0
2017-Dec-02 16:59N 47°35' W 122°21'0 0.0
2017-Dec-02 16:29N 47°35' W 122°21'0 0.0
2017-Dec-02 15:59N 47°35' W 122°21'0 0.0
2017-Dec-02 15:30N 47°35' W 122°21'0 0.0
2017-Dec-02 14:59N 47°35' W 122°21'0 0.0
2017-Dec-02 14:30N 47°35' W 122°21'0 0.0
2017-Dec-02 14:00N 47°35' W 122°21'0 0.5
2017-Dec-02 13:26N 47°36' W 122°21'1 1.8
2017-Dec-02 13:00N 47°35' W 122°22'0 0.4
2017-Dec-02 12:29N 47°35' W 122°22'0 0.0
2017-Dec-02 11:58N 47°35' W 122°22'0 0.0
2017-Dec-02 11:30N 47°35' W 122°22'0 0.0
2017-Dec-02 10:58N 47°35' W 122°22'0 0.0
2017-Dec-02 10:28N 47°35' W 122°22'0 0.0
2017-Dec-02 09:58N 47°35' W 122°22'0 0.0
2017-Dec-02 09:25N 47°35' W 122°22'0 0.0
2017-Dec-02 08:59N 47°35' W 122°22'0 0.0
2017-Dec-02 08:29N 47°35' W 122°22'0 0.0
2017-Dec-02 07:59N 47°35' W 122°22'0 0.0
2017-Dec-02 07:29N 47°35' W 122°22'0 0.0
2017-Dec-02 06:59N 47°35' W 122°22'0 0.0
2017-Dec-02 06:23N 47°35' W 122°22'0 0.0
2017-Dec-02 05:59N 47°35' W 122°22'0 0.0
2017-Dec-02 05:28N 47°35' W 122°22'0 0.0
2017-Dec-02 04:58N 47°35' W 122°22'0 0.0
2017-Dec-02 04:29N 47°35' W 122°22'0 0.0
2017-Dec-02 03:59N 47°35' W 122°22'0 0.0
2017-Dec-02 03:29N 47°35' W 122°22'0 0.0
2017-Dec-02 02:59N 47°35' W 122°22'0 0.0
2017-Dec-02 02:29N 47°35' W 122°22'0 0.0
2017-Dec-02 01:58N 47°35' W 122°22'0 0.7
2017-Dec-02 01:30N 47°35' W 122°22'1 1.1
2017-Dec-02 01:00N 47°35' W 122°21'0 0.0
2017-Dec-02 00:29N 47°35' W 122°21'0 0.0
2017-Dec-01 23:59N 47°35' W 122°21'0 0.0
2017-Dec-01 23:29N 47°35' W 122°21'0 0.0
2017-Dec-01 22:59N 47°35' W 122°21'1 2.1
2017-Dec-01 22:29N 47°34' W 122°21'0 0.0
2017-Dec-01 21:59N 47°34' W 122°21'0 0.0
2017-Dec-01 21:30N 47°34' W 122°21'0 0.5
2017-Dec-01 21:00N 47°35' W 122°21'0 0.5
2017-Dec-01 20:29N 47°34' W 122°21'0 0.0
2017-Dec-01 19:59N 47°34' W 122°21'0 0.0
2017-Dec-01 19:29N 47°34' W 122°21'0 0.0
2017-Dec-01 18:59N 47°34' W 122°21'0 0.0
2017-Dec-01 18:23N 47°34' W 122°21'1 1.6
2017-Dec-01 18:00N 47°35' W 122°21'0 0.9
2017-Dec-01 17:29N 47°35' W 122°21'  
Track history (hours):
 
Tides and Currents Weather Stations Pressure Air Temp Water Temp Dewpoint Dewpoint Depression Visibility Wind Speed Wind Dir Waves Ship Positions

Aj

Owner: Harley Marine Services, Inc, Seattle, WA. More information available from US FCC via Universal Licensing System and Coast Guard Vessel Documentation Center.

Last reported at 2017-Dec-11 17:00 UTC. Time now 2017-Dec-12 12:32 UTC.
Position N 48°39' W 122°43'.

Length 30 m; draft 3.8 m.

Type: Tow > 200 m length. MMSI: 367741120.

Date/timePositionNaut miles runAvg speedWind from/ knotsBaromVisibWave heightAir tempDewpointWater temp
2017-Dec-11 17:00N 48°39' W 122°43'3 6.6
2017-Dec-11 16:30N 48°36' W 122°45'3 6.9
2017-Dec-11 16:00N 48°33' W 122°45'3 6.1
2017-Dec-11 15:30N 48°30' W 122°44'3 5.5
2017-Dec-11 15:00N 48°27' W 122°45'3 6.3
2017-Dec-11 14:30N 48°24' W 122°48'3 6.2
2017-Dec-11 14:00N 48°22' W 122°51'3 6.3
2017-Dec-11 13:30N 48°21' W 122°55'3 6.5
2017-Dec-11 12:59N 48°19' W 122°59'3 6.6
2017-Dec-11 12:30N 48°17' W 123°03'3 6.6
2017-Dec-11 12:00N 48°15' W 123°08'3 6.5
2017-Dec-11 11:30N 48°14' W 123°12'3 6.5
2017-Dec-11 11:00N 48°12' W 123°16'3 5.5
2017-Dec-11 10:30N 48°10' W 123°19'3 5.5
2017-Dec-11 10:00N 48°09' W 123°23'2 4.6
2017-Dec-11 09:31N 48°08' W 123°26'1 0.1
2017-Dec-11 05:55N 48°08' W 123°26'0 0.0
2017-Dec-11 05:30N 48°08' W 123°26'0 0.0
2017-Dec-11 04:18N 48°08' W 123°26'0 0.0
2017-Dec-11 02:43N 48°08' W 123°26'0 0.0
2017-Dec-11 02:30N 48°08' W 123°26'0 0.0
2017-Dec-11 01:12N 48°08' W 123°26'0 0.0
2017-Dec-10 22:09N 48°08' W 123°26'0 0.0
2017-Dec-10 21:54N 48°08' W 123°26'0 0.0
2017-Dec-10 21:27N 48°08' W 123°26'0 0.0
2017-Dec-10 19:33N 48°08' W 123°26'0 0.0
2017-Dec-10 19:27N 48°08' W 123°26'0 0.0
2017-Dec-10 18:51N 48°08' W 123°26'0 0.0
2017-Dec-10 18:28N 48°08' W 123°26'0 0.0
2017-Dec-10 17:57N 48°08' W 123°26'0 0.0
2017-Dec-10 17:27N 48°08' W 123°26'0 0.0
2017-Dec-10 16:57N 48°08' W 123°26'0 0.0
2017-Dec-10 16:09N 48°08' W 123°26'0 0.0
2017-Dec-10 16:00N 48°08' W 123°26'0 0.0
2017-Dec-10 15:28N 48°08' W 123°26'0 0.0
2017-Dec-10 14:57N 48°08' W 123°26'0 0.0
2017-Dec-10 14:27N 48°08' W 123°26'0 0.0
2017-Dec-10 13:58N 48°08' W 123°26'0 0.0
2017-Dec-10 12:57N 48°08' W 123°26'0 0.0
2017-Dec-10 12:27N 48°08' W 123°26'0 0.0
2017-Dec-10 11:34N 48°08' W 123°26'0 0.0
2017-Dec-10 10:03N 48°08' W 123°26'0 0.0
2017-Dec-10 09:51N 48°08' W 123°26'0 0.0
2017-Dec-10 09:27N 48°08' W 123°26'0 0.0
2017-Dec-10 08:57N 48°08' W 123°26'0 0.0
2017-Dec-10 08:27N 48°08' W 123°26'0 0.0
2017-Dec-10 06:45N 48°08' W 123°26'0 0.0
2017-Dec-10 05:27N 48°08' W 123°26'0 0.0
2017-Dec-10 04:57N 48°08' W 123°26'0 0.0
2017-Dec-10 02:27N 48°08' W 123°26'0 0.0
2017-Dec-10 01:57N 48°08' W 123°26'0 0.0
2017-Dec-10 01:24N 48°08' W 123°26'0 0.0
2017-Dec-10 00:57N 48°08' W 123°26'0 0.0
2017-Dec-10 00:27N 48°08' W 123°26'0 0.0
2017-Dec-09 23:51N 48°08' W 123°26'0 0.0
2017-Dec-09 23:30N 48°08' W 123°26'0 0.0
2017-Dec-09 22:42N 48°08' W 123°26'0 0.0
2017-Dec-09 22:21N 48°08' W 123°26'0 0.0
2017-Dec-09 21:27N 48°08' W 123°26'0 0.0
2017-Dec-09 20:45N 48°08' W 123°26'0 0.0
2017-Dec-09 20:21N 48°08' W 123°26'0 0.0
2017-Dec-09 19:57N 48°08' W 123°26'0 0.0
2017-Dec-09 19:27N 48°08' W 123°26'0 0.0
2017-Dec-09 18:51N 48°08' W 123°26'0 0.0
2017-Dec-09 18:03N 48°08' W 123°26'0 0.0
2017-Dec-09 17:57N 48°08' W 123°26'0 0.0
2017-Dec-09 17:15N 48°08' W 123°26'0 0.0
2017-Dec-09 16:57N 48°08' W 123°26'0 0.0
2017-Dec-09 16:30N 48°08' W 123°26'0 0.0
2017-Dec-09 15:57N 48°08' W 123°26'0 0.0
2017-Dec-09 15:21N 48°08' W 123°26'0 0.0
2017-Dec-09 14:45N 48°08' W 123°26'0 0.0
2017-Dec-09 14:15N 48°08' W 123°26'0 0.0
2017-Dec-09 13:57N 48°08' W 123°26'0 0.0
2017-Dec-09 13:27N 48°08' W 123°26'0 0.0
2017-Dec-09 12:39N 48°08' W 123°26'0 0.0
2017-Dec-09 12:15N 48°08' W 123°26'0 0.0
2017-Dec-09 11:57N 48°08' W 123°26'0 0.0
2017-Dec-09 11:27N 48°08' W 123°26'0 0.0
2017-Dec-09 10:57N 48°08' W 123°26'0 0.0
2017-Dec-09 10:30N 48°08' W 123°26'0 0.0
2017-Dec-09 09:57N 48°08' W 123°26'0 0.0
2017-Dec-09 09:27N 48°08' W 123°26'0 0.0
2017-Dec-09 08:57N 48°08' W 123°26'0 0.0
2017-Dec-09 08:27N 48°08' W 123°26'0 0.0
2017-Dec-09 07:57N 48°08' W 123°26'0 0.0
2017-Dec-09 07:21N 48°08' W 123°26'0 0.0
2017-Dec-09 07:00N 48°08' W 123°26'0 0.0
2017-Dec-09 06:30N 48°08' W 123°26'0 0.0
2017-Dec-09 05:54N 48°08' W 123°26'0 0.0
2017-Dec-09 05:18N 48°08' W 123°26'0 0.0
2017-Dec-09 04:57N 48°08' W 123°26'0 0.0
2017-Dec-09 04:21N 48°08' W 123°26'0 0.0
2017-Dec-09 04:00N 48°08' W 123°26'0 0.0
2017-Dec-09 03:21N 48°08' W 123°26'0 0.0
2017-Dec-09 03:00N 48°08' W 123°26'0 0.0
2017-Dec-09 01:03N 48°08' W 123°26'0 0.0
2017-Dec-09 00:57N 48°08' W 123°26'0 0.0
2017-Dec-08 21:15N 48°08' W 123°26'0 0.0
2017-Dec-08 20:57N 48°08' W 123°26'0 0.0
2017-Dec-08 20:27N 48°08' W 123°26'0 0.0
2017-Dec-08 19:39N 48°08' W 123°26'0 0.0
2017-Dec-08 19:30N 48°08' W 123°26'0 0.0
2017-Dec-08 18:57N 48°08' W 123°26'0 0.0
2017-Dec-08 18:30N 48°08' W 123°26'0 0.0
2017-Dec-08 17:57N 48°08' W 123°26'0 0.0
2017-Dec-08 16:15N 48°08' W 123°26'0 0.0
2017-Dec-08 15:51N 48°08' W 123°26'0 0.0
2017-Dec-08 15:24N 48°08' W 123°26'0 0.0
2017-Dec-08 15:00N 48°08' W 123°26'0 0.0
2017-Dec-08 14:18N 48°08' W 123°26'0 0.0
2017-Dec-08 13:54N 48°08' W 123°26'0 0.0
2017-Dec-08 13:24N 48°08' W 123°26'0 0.0
2017-Dec-08 12:54N 48°08' W 123°26'0 0.0
2017-Dec-08 12:27N 48°08' W 123°26'0 0.0
2017-Dec-08 11:42N 48°08' W 123°26'0 0.0
2017-Dec-08 11:18N 48°08' W 123°26'0 0.0
2017-Dec-08 11:00N 48°08' W 123°26'0 0.0
2017-Dec-08 04:48N 48°08' W 123°26'0 0.0
2017-Dec-08 03:54N 48°08' W 123°26'0 0.0
2017-Dec-08 03:30N 48°08' W 123°26'0 0.0
2017-Dec-08 02:33N 48°08' W 123°26'0 0.0
2017-Dec-08 02:27N 48°08' W 123°26'0 0.0
2017-Dec-08 01:36N 48°08' W 123°26'0 0.0
2017-Dec-08 01:30N 48°08' W 123°26'0 0.0
2017-Dec-08 00:42N 48°08' W 123°26'0 0.0
2017-Dec-08 00:24N 48°08' W 123°26'0 0.0
2017-Dec-08 00:00N 48°08' W 123°26'0 0.0
2017-Dec-07 23:03N 48°08' W 123°26'0 0.0
2017-Dec-07 23:00N 48°08' W 123°26'0 0.0
2017-Dec-07 22:30N 48°08' W 123°26'0 0.0
2017-Dec-07 21:30N 48°08' W 123°26'0 0.0
2017-Dec-07 21:00N 48°08' W 123°26'0 0.0
2017-Dec-07 20:30N 48°08' W 123°26'0 0.0
2017-Dec-07 18:45N 48°08' W 123°26'0 0.4
2017-Dec-07 18:30N 48°08' W 123°26'0 0.7
2017-Dec-07 18:01N 48°08' W 123°26'0 0.3
2017-Dec-07 17:31N 48°08' W 123°27'0 0.1
2017-Dec-07 17:00N 48°08' W 123°27'0 0.1
2017-Dec-07 16:30N 48°08' W 123°27'0 0.4
2017-Dec-07 15:58N 48°08' W 123°26'1 1.4
2017-Dec-07 15:22N 48°08' W 123°25'0 0.2
2017-Dec-07 14:58N 48°08' W 123°25'0 0.0
2017-Dec-07 14:25N 48°08' W 123°25'0 0.8
2017-Dec-07 13:56N 48°08' W 123°25'0 0.6
2017-Dec-07 13:27N 48°08' W 123°24'0 0.0
2017-Dec-07 12:54N 48°08' W 123°24'0 0.0
2017-Dec-07 12:27N 48°08' W 123°24'0 0.0
2017-Dec-07 11:57N 48°08' W 123°24'0 0.0
2017-Dec-07 11:27N 48°08' W 123°24'0 0.1
2017-Dec-07 10:57N 48°08' W 123°24'0 0.2
2017-Dec-07 10:30N 48°08' W 123°24'0 0.3
2017-Dec-07 10:00N 48°08' W 123°24'2 4.0
2017-Dec-07 09:30N 48°09' W 123°22'1 2.4
2017-Dec-07 09:00N 48°09' W 123°20'3 6.7
2017-Dec-07 08:30N 48°11' W 123°16'4 7.2
2017-Dec-07 08:00N 48°13' W 123°11'3 5.9
2017-Dec-07 07:29N 48°14' W 123°07'1 1.7
2017-Dec-07 07:00N 48°15' W 123°07'0 0.7
2017-Dec-07 06:30N 48°15' W 123°07'0 0.8
2017-Dec-07 06:00N 48°14' W 123°07'1 1.7
2017-Dec-07 05:30N 48°14' W 123°07'4 5.5
2017-Dec-07 04:49N 48°13' W 123°01'2 5.6
2017-Dec-07 04:29N 48°12' W 122°59'3 5.6
2017-Dec-07 03:55N 48°12' W 122°54'3 6.9
2017-Dec-07 03:26N 48°12' W 122°49'12 6.5
2017-Dec-07 01:35N 48°03' W 122°38'1 6.1
2017-Dec-07 01:25N 48°02' W 122°37'3 6.0
2017-Dec-07 00:59N 47°59' W 122°35'3 5.6
2017-Dec-07 00:29N 47°57' W 122°33'3 6.3
2017-Dec-07 00:00N 47°56' W 122°29'3 5.9
2017-Dec-06 23:30N 47°53' W 122°28'3 6.7
2017-Dec-06 23:00N 47°49' W 122°27'3 6.3
2017-Dec-06 22:30N 47°46' W 122°26'3 5.8
2017-Dec-06 22:00N 47°43' W 122°26'3 5.5
2017-Dec-06 21:30N 47°41' W 122°27'3 5.7
2017-Dec-06 21:00N 47°38' W 122°26'  
2017-Dec-04 10:19N 48°19' W 122°60'2 6.1
2017-Dec-04 10:00N 48°18' W 123°02'4 8.4
2017-Dec-04 09:30N 48°16' W 123°07'4 8.0
2017-Dec-04 09:00N 48°13' W 123°12'4 7.5
2017-Dec-04 08:30N 48°11' W 123°17'4 7.7
2017-Dec-04 08:00N 48°09' W 123°21'2 5.0
2017-Dec-04 07:30N 48°08' W 123°25'1 1.6
2017-Dec-04 07:00N 48°08' W 123°26'0 0.0
2017-Dec-04 06:30N 48°08' W 123°26'0 0.1
2017-Dec-04 06:00N 48°08' W 123°26'0 0.0
2017-Dec-04 05:30N 48°08' W 123°26'0 0.0
2017-Dec-04 05:00N 48°08' W 123°26'0 0.0
2017-Dec-04 04:30N 48°08' W 123°26'0 0.0
2017-Dec-04 04:00N 48°08' W 123°26'0 0.0
2017-Dec-04 03:30N 48°08' W 123°26'0 0.0
2017-Dec-04 03:00N 48°08' W 123°26'0 0.0
2017-Dec-04 02:30N 48°08' W 123°26'0 0.0
2017-Dec-04 02:00N 48°08' W 123°26'0 0.1
2017-Dec-04 01:30N 48°08' W 123°26'0 0.1
2017-Dec-04 01:00N 48°08' W 123°26'0 0.1
2017-Dec-04 00:23N 48°08' W 123°26'0 0.0
2017-Dec-04 00:00N 48°08' W 123°26'0 0.0
2017-Dec-03 23:30N 48°08' W 123°26'0 0.1
2017-Dec-03 23:00N 48°08' W 123°26'0 0.0
2017-Dec-03 22:30N 48°08' W 123°26'0 0.1
2017-Dec-03 22:00N 48°08' W 123°26'0 0.1
2017-Dec-03 21:30N 48°08' W 123°26'0 0.0
2017-Dec-03 20:53N 48°08' W 123°26'0 0.0
2017-Dec-03 20:30N 48°08' W 123°26'0 0.1
2017-Dec-03 20:00N 48°08' W 123°26'0 0.1
2017-Dec-03 19:30N 48°08' W 123°26'0 0.0
2017-Dec-03 19:00N 48°08' W 123°26'0 0.1
2017-Dec-03 18:29N 48°08' W 123°26'0 0.0
2017-Dec-03 18:00N 48°08' W 123°26'0 0.1
2017-Dec-03 17:29N 48°08' W 123°26'0 0.1
2017-Dec-03 16:53N 48°08' W 123°26'0 0.1
2017-Dec-03 16:28N 48°08' W 123°26'1 1.4
2017-Dec-03 16:00N 48°08' W 123°25'1 3.0
2017-Dec-03 15:30N 48°08' W 123°23'4 7.0
2017-Dec-03 14:58N 48°10' W 123°18'4 7.5
2017-Dec-03 14:26N 48°11' W 123°12'3 6.8
2017-Dec-03 13:59N 48°12' W 123°08'21 3.2
2017-Dec-03 07:30N 48°06' W 122°38'4 5.8
2017-Dec-03 06:50N 48°02' W 122°37'3 5.8
2017-Dec-03 06:21N 47°59' W 122°35'2 5.8
2017-Dec-03 06:00N 47°58' W 122°33'3 6.8
2017-Dec-03 05:30N 47°56' W 122°29'3 6.9
2017-Dec-03 05:00N 47°53' W 122°28'3 6.7
2017-Dec-03 04:30N 47°49' W 122°27'3 6.7
2017-Dec-03 04:00N 47°46' W 122°25'4 7.0
2017-Dec-03 03:30N 47°43' W 122°26'4 7.1
2017-Dec-03 03:00N 47°39' W 122°27'3 6.4
2017-Dec-03 02:31N 47°37' W 122°24'2 4.0
2017-Dec-03 02:01N 47°36' W 122°21'0 0.5
2017-Dec-03 01:30N 47°35' W 122°21'0 0.0
2017-Dec-03 01:00N 47°35' W 122°21'0 0.0
2017-Dec-03 00:30N 47°35' W 122°21'0 0.0
2017-Dec-03 00:00N 47°35' W 122°21'0 0.0
2017-Dec-02 23:30N 47°35' W 122°21'0 0.0
2017-Dec-02 23:00N 47°35' W 122°21'1 1.9
2017-Dec-02 22:29N 47°34' W 122°21'0 0.0
2017-Dec-02 21:59N 47°34' W 122°21'0 0.0
2017-Dec-02 21:29N 47°34' W 122°21'0 0.0
2017-Dec-02 21:00N 47°34' W 122°21'0 0.0
2017-Dec-02 20:30N 47°34' W 122°21'1 2.0
2017-Dec-02 19:59N 47°35' W 122°21'0 0.0
2017-Dec-02 19:30N 47°35' W 122°21'0 0.0
2017-Dec-02 18:56N 47°35' W 122°21'0 0.0
2017-Dec-02 18:29N 47°35' W 122°21'0 0.0
2017-Dec-02 17:59N 47°35' W 122°21'0 0.0
2017-Dec-02 17:29N 47°35' W 122°21'0 0.0
2017-Dec-02 16:59N 47°35' W 122°21'0 0.0
2017-Dec-02 16:29N 47°35' W 122°21'0 0.0
2017-Dec-02 15:59N 47°35' W 122°21'0 0.0
2017-Dec-02 15:30N 47°35' W 122°21'0 0.0
2017-Dec-02 14:59N 47°35' W 122°21'0 0.0
2017-Dec-02 14:30N 47°35' W 122°21'0 0.0
2017-Dec-02 14:00N 47°35' W 122°21'0 0.5
2017-Dec-02 13:26N 47°36' W 122°21'1 1.8
2017-Dec-02 13:00N 47°35' W 122°22'0 0.4
2017-Dec-02 12:29N 47°35' W 122°22'0 0.0
2017-Dec-02 11:58N 47°35' W 122°22'0 0.0
2017-Dec-02 11:30N 47°35' W 122°22'0 0.0
2017-Dec-02 10:58N 47°35' W 122°22'0 0.0
2017-Dec-02 10:28N 47°35' W 122°22'0 0.0
2017-Dec-02 09:58N 47°35' W 122°22'0 0.0
2017-Dec-02 09:25N 47°35' W 122°22'0 0.0
2017-Dec-02 08:59N 47°35' W 122°22'0 0.0
2017-Dec-02 08:29N 47°35' W 122°22'0 0.0
2017-Dec-02 07:59N 47°35' W 122°22'0 0.0
2017-Dec-02 07:29N 47°35' W 122°22'0 0.0
2017-Dec-02 06:59N 47°35' W 122°22'0 0.0
2017-Dec-02 06:23N 47°35' W 122°22'0 0.0
2017-Dec-02 05:59N 47°35' W 122°22'0 0.0
2017-Dec-02 05:28N 47°35' W 122°22'0 0.0
2017-Dec-02 04:58N 47°35' W 122°22'0 0.0
2017-Dec-02 04:29N 47°35' W 122°22'0 0.0
2017-Dec-02 03:59N 47°35' W 122°22'0 0.0
2017-Dec-02 03:29N 47°35' W 122°22'0 0.0
2017-Dec-02 02:59N 47°35' W 122°22'0 0.0
2017-Dec-02 02:29N 47°35' W 122°22'0 0.0
2017-Dec-02 01:58N 47°35' W 122°22'0 0.7
2017-Dec-02 01:30N 47°35' W 122°22'1 1.1
2017-Dec-02 01:00N 47°35' W 122°21'0 0.0
2017-Dec-02 00:29N 47°35' W 122°21'0 0.0
2017-Dec-01 23:59N 47°35' W 122°21'0 0.0
2017-Dec-01 23:29N 47°35' W 122°21'0 0.0
2017-Dec-01 22:59N 47°35' W 122°21'1 2.1
2017-Dec-01 22:29N 47°34' W 122°21'0 0.0
2017-Dec-01 21:59N 47°34' W 122°21'0 0.0
2017-Dec-01 21:30N 47°34' W 122°21'0 0.5
2017-Dec-01 21:00N 47°35' W 122°21'0 0.5
2017-Dec-01 20:29N 47°34' W 122°21'0 0.0
2017-Dec-01 19:59N 47°34' W 122°21'0 0.0
2017-Dec-01 19:29N 47°34' W 122°21'0 0.0
2017-Dec-01 18:59N 47°34' W 122°21'0 0.0
2017-Dec-01 18:23N 47°34' W 122°21'1 1.6
2017-Dec-01 18:00N 47°35' W 122°21'0 0.9
2017-Dec-01 17:29N 47°35' W 122°21'  

Dump ship's entire track history